sensor_id;sensor_type;location;lat;lon;timestamp;P1;durP1;ratioP1;P2;durP2;ratioP2
24483;SDS011;12643;51.620;7.548;2023-01-28T00:02:10;8.60;;;6.32;;
24483;SDS011;12643;51.620;7.548;2023-01-28T00:04:39;10.02;;;6.28;;
24483;SDS011;12643;51.620;7.548;2023-01-28T00:07:06;9.73;;;6.97;;
24483;SDS011;12643;51.620;7.548;2023-01-28T00:09:34;7.53;;;6.72;;
24483;SDS011;12643;51.620;7.548;2023-01-28T00:12:04;7.18;;;6.50;;
24483;SDS011;12643;51.620;7.548;2023-01-28T00:14:32;7.63;;;5.80;;
24483;SDS011;12643;51.620;7.548;2023-01-28T00:16:59;7.85;;;6.15;;
24483;SDS011;12643;51.620;7.548;2023-01-28T00:19:31;9.02;;;6.28;;
24483;SDS011;12643;51.620;7.548;2023-01-28T00:21:59;6.97;;;6.03;;
24483;SDS011;12643;51.620;7.548;2023-01-28T00:24:29;9.85;;;6.10;;
24483;SDS011;12643;51.620;7.548;2023-01-28T00:26:57;6.38;;;5.63;;
24483;SDS011;12643;51.620;7.548;2023-01-28T00:29:24;8.88;;;5.53;;
24483;SDS011;12643;51.620;7.548;2023-01-28T00:31:55;6.20;;;5.60;;
24483;SDS011;12643;51.620;7.548;2023-01-28T00:34:22;6.32;;;5.72;;
24483;SDS011;12643;51.620;7.548;2023-01-28T00:36:52;8.93;;;5.88;;
24483;SDS011;12643;51.620;7.548;2023-01-28T00:39:23;6.80;;;6.10;;
24483;SDS011;12643;51.620;7.548;2023-01-28T00:41:51;11.32;;;6.55;;
24483;SDS011;12643;51.620;7.548;2023-01-28T00:44:20;15.25;;;6.82;;
24483;SDS011;12643;51.620;7.548;2023-01-28T00:46:48;8.27;;;7.18;;
24483;SDS011;12643;51.620;7.548;2023-01-28T00:49:19;11.90;;;6.85;;
24483;SDS011;12643;51.620;7.548;2023-01-28T00:51:49;8.13;;;6.17;;
24483;SDS011;12643;51.620;7.548;2023-01-28T00:54:18;8.65;;;6.20;;
24483;SDS011;12643;51.620;7.548;2023-01-28T00:56:50;6.15;;;5.55;;
24483;SDS011;12643;51.620;7.548;2023-01-28T00:59:18;7.40;;;6.63;;
24483;SDS011;12643;51.620;7.548;2023-01-28T01:01:46;7.32;;;6.03;;
24483;SDS011;12643;51.620;7.548;2023-01-28T01:10:16;8.20;;;6.35;;
24483;SDS011;12643;51.620;7.548;2023-01-28T01:15:14;8.82;;;6.53;;
24483;SDS011;12643;51.620;7.548;2023-01-28T01:17:43;7.50;;;6.32;;
24483;SDS011;12643;51.620;7.548;2023-01-28T01:20:14;7.20;;;6.47;;
24483;SDS011;12643;51.620;7.548;2023-01-28T01:22:44;7.68;;;6.38;;
24483;SDS011;12643;51.620;7.548;2023-01-28T01:25:13;6.97;;;6.28;;
24483;SDS011;12643;51.620;7.548;2023-01-28T01:27:44;7.55;;;6.53;;
24483;SDS011;12643;51.620;7.548;2023-01-28T01:30:15;9.63;;;6.43;;
24483;SDS011;12643;51.620;7.548;2023-01-28T01:32:43;8.90;;;6.00;;
24483;SDS011;12643;51.620;7.548;2023-01-28T01:35:11;8.80;;;5.93;;
24483;SDS011;12643;51.620;7.548;2023-01-28T01:37:42;6.75;;;6.03;;
24483;SDS011;12643;51.620;7.548;2023-01-28T01:40:11;8.57;;;6.20;;
24483;SDS011;12643;51.620;7.548;2023-01-28T01:42:41;7.38;;;5.88;;
24483;SDS011;12643;51.620;7.548;2023-01-28T01:45:10;9.60;;;6.35;;
24483;SDS011;12643;51.620;7.548;2023-01-28T01:47:40;7.40;;;6.10;;
24483;SDS011;12643;51.620;7.548;2023-01-28T01:50:15;8.23;;;5.82;;
24483;SDS011;12643;51.620;7.548;2023-01-28T01:52:48;8.55;;;5.93;;
24483;SDS011;12643;51.620;7.548;2023-01-28T01:55:20;6.40;;;5.75;;
24483;SDS011;12643;51.620;7.548;2023-01-28T01:57:53;9.73;;;6.28;;
24483;SDS011;12643;51.620;7.548;2023-01-28T02:00:22;6.28;;;5.68;;
24483;SDS011;12643;51.620;7.548;2023-01-28T02:02:51;6.60;;;5.97;;
24483;SDS011;12643;51.620;7.548;2023-01-28T02:05:21;5.93;;;5.43;;
24483;SDS011;12643;51.620;7.548;2023-01-28T02:07:51;7.30;;;6.18;;
24483;SDS011;12643;51.620;7.548;2023-01-28T02:13:10;7.57;;;5.60;;
24483;SDS011;12643;51.620;7.548;2023-01-28T02:15:39;9.82;;;5.90;;
24483;SDS011;12643;51.620;7.548;2023-01-28T02:18:07;6.97;;;5.90;;
24483;SDS011;12643;51.620;7.548;2023-01-28T02:20:38;9.27;;;5.82;;
24483;SDS011;12643;51.620;7.548;2023-01-28T02:23:26;7.05;;;5.90;;
24483;SDS011;12643;51.620;7.548;2023-01-28T02:28:54;6.60;;;5.60;;
24483;SDS011;12643;51.620;7.548;2023-01-28T02:31:29;9.15;;;6.50;;
24483;SDS011;12643;51.620;7.548;2023-01-28T02:36:34;6.75;;;6.10;;
24483;SDS011;12643;51.620;7.548;2023-01-28T02:39:07;10.30;;;6.85;;
24483;SDS011;12643;51.620;7.548;2023-01-28T02:41:39;7.13;;;6.38;;
24483;SDS011;12643;51.620;7.548;2023-01-28T02:44:14;6.00;;;5.40;;
24483;SDS011;12643;51.620;7.548;2023-01-28T02:46:50;6.28;;;5.68;;
24483;SDS011;12643;51.620;7.548;2023-01-28T02:49:38;7.45;;;6.72;;
24483;SDS011;12643;51.620;7.548;2023-01-28T02:52:12;10.00;;;6.75;;
24483;SDS011;12643;51.620;7.548;2023-01-28T02:55:09;7.85;;;6.97;;
24483;SDS011;12643;51.620;7.548;2023-01-28T02:57:44;7.30;;;6.60;;
24483;SDS011;12643;51.620;7.548;2023-01-28T03:00:22;7.00;;;6.30;;
24483;SDS011;12643;51.620;7.548;2023-01-28T03:02:57;9.77;;;6.88;;
24483;SDS011;12643;51.620;7.548;2023-01-28T03:05:32;7.82;;;7.00;;
24483;SDS011;12643;51.620;7.548;2023-01-28T03:08:03;8.32;;;6.45;;
24483;SDS011;12643;51.620;7.548;2023-01-28T03:10:52;7.70;;;6.40;;
24483;SDS011;12643;51.620;7.548;2023-01-28T03:13:40;8.13;;;6.68;;
24483;SDS011;12643;51.620;7.548;2023-01-28T03:16:29;7.32;;;6.55;;
24483;SDS011;12643;51.620;7.548;2023-01-28T03:19:15;7.15;;;6.45;;
24483;SDS011;12643;51.620;7.548;2023-01-28T03:22:03;7.60;;;6.55;;
24483;SDS011;12643;51.620;7.548;2023-01-28T03:24:49;8.88;;;6.43;;
24483;SDS011;12643;51.620;7.548;2023-01-28T03:27:38;10.27;;;7.60;;
24483;SDS011;12643;51.620;7.548;2023-01-28T03:30:29;9.30;;;7.72;;
24483;SDS011;12643;51.620;7.548;2023-01-28T03:33:23;8.20;;;7.22;;
24483;SDS011;12643;51.620;7.548;2023-01-28T03:36:10;8.90;;;7.35;;
24483;SDS011;12643;51.620;7.548;2023-01-28T03:38:56;7.60;;;6.75;;
24483;SDS011;12643;51.620;7.548;2023-01-28T03:41:24;9.60;;;6.63;;
24483;SDS011;12643;51.620;7.548;2023-01-28T03:43:53;8.77;;;6.03;;
24483;SDS011;12643;51.620;7.548;2023-01-28T03:46:21;8.20;;;7.03;;
24483;SDS011;12643;51.620;7.548;2023-01-28T03:48:50;8.90;;;7.20;;
24483;SDS011;12643;51.620;7.548;2023-01-28T03:51:20;11.27;;;8.50;;
24483;SDS011;12643;51.620;7.548;2023-01-28T03:53:48;8.13;;;7.32;;
24483;SDS011;12643;51.620;7.548;2023-01-28T03:56:16;8.93;;;7.97;;
24483;SDS011;12643;51.620;7.548;2023-01-28T03:58:48;8.77;;;7.97;;
24483;SDS011;12643;51.620;7.548;2023-01-28T04:01:18;9.07;;;7.72;;
24483;SDS011;12643;51.620;7.548;2023-01-28T04:03:46;11.68;;;7.47;;
24483;SDS011;12643;51.620;7.548;2023-01-28T04:06:16;11.63;;;7.93;;
24483;SDS011;12643;51.620;7.548;2023-01-28T04:08:45;11.50;;;8.27;;
24483;SDS011;12643;51.620;7.548;2023-01-28T04:11:17;15.48;;;10.15;;
24483;SDS011;12643;51.620;7.548;2023-01-28T04:13:46;12.88;;;8.20;;
24483;SDS011;12643;51.620;7.548;2023-01-28T04:16:15;11.00;;;7.72;;
24483;SDS011;12643;51.620;7.548;2023-01-28T04:18:43;10.18;;;8.40;;
24483;SDS011;12643;51.620;7.548;2023-01-28T04:21:11;10.80;;;9.15;;
24483;SDS011;12643;51.620;7.548;2023-01-28T04:23:40;10.02;;;8.68;;
24483;SDS011;12643;51.620;7.548;2023-01-28T04:26:08;11.00;;;8.48;;
24483;SDS011;12643;51.620;7.548;2023-01-28T04:28:36;13.50;;;8.95;;
24483;SDS011;12643;51.620;7.548;2023-01-28T04:31:04;10.48;;;7.90;;
24483;SDS011;12643;51.620;7.548;2023-01-28T04:33:32;10.50;;;8.80;;
24483;SDS011;12643;51.620;7.548;2023-01-28T04:36:00;10.95;;;8.48;;
24483;SDS011;12643;51.620;7.548;2023-01-28T04:38:28;10.90;;;9.57;;
24483;SDS011;12643;51.620;7.548;2023-01-28T04:40:58;10.18;;;8.98;;
24483;SDS011;12643;51.620;7.548;2023-01-28T04:43:26;9.65;;;8.70;;
24483;SDS011;12643;51.620;7.548;2023-01-28T04:45:54;13.07;;;9.02;;
24483;SDS011;12643;51.620;7.548;2023-01-28T04:48:23;9.95;;;8.95;;
24483;SDS011;12643;51.620;7.548;2023-01-28T04:50:52;12.43;;;9.63;;
24483;SDS011;12643;51.620;7.548;2023-01-28T04:53:21;10.45;;;8.65;;
24483;SDS011;12643;51.620;7.548;2023-01-28T04:55:49;13.40;;;8.80;;
24483;SDS011;12643;51.620;7.548;2023-01-28T04:58:18;8.63;;;7.53;;
24483;SDS011;12643;51.620;7.548;2023-01-28T05:00:50;11.53;;;8.40;;
24483;SDS011;12643;51.620;7.548;2023-01-28T05:03:20;10.02;;;9.02;;
24483;SDS011;12643;51.620;7.548;2023-01-28T05:05:48;12.52;;;8.43;;
24483;SDS011;12643;51.620;7.548;2023-01-28T05:08:16;9.40;;;8.18;;
24483;SDS011;12643;51.620;7.548;2023-01-28T05:10:44;10.55;;;7.88;;
24483;SDS011;12643;51.620;7.548;2023-01-28T05:13:12;9.43;;;8.18;;
24483;SDS011;12643;51.620;7.548;2023-01-28T05:15:41;9.60;;;8.63;;
24483;SDS011;12643;51.620;7.548;2023-01-28T05:18:09;12.02;;;8.68;;
24483;SDS011;12643;51.620;7.548;2023-01-28T05:20:37;11.73;;;8.32;;
24483;SDS011;12643;51.620;7.548;2023-01-28T05:23:05;9.55;;;8.65;;
24483;SDS011;12643;51.620;7.548;2023-01-28T05:25:33;9.02;;;7.43;;
24483;SDS011;12643;51.620;7.548;2023-01-28T05:28:01;11.23;;;8.10;;
24483;SDS011;12643;51.620;7.548;2023-01-28T05:30:29;9.50;;;7.78;;
24483;SDS011;12643;51.620;7.548;2023-01-28T05:32:58;8.35;;;7.50;;
24483;SDS011;12643;51.620;7.548;2023-01-28T05:35:26;9.60;;;7.55;;
24483;SDS011;12643;51.620;7.548;2023-01-28T05:37:54;10.95;;;7.85;;
24483;SDS011;12643;51.620;7.548;2023-01-28T05:40:22;8.18;;;7.32;;
24483;SDS011;12643;51.620;7.548;2023-01-28T05:42:50;10.90;;;8.48;;
24483;SDS011;12643;51.620;7.548;2023-01-28T05:45:19;13.15;;;9.18;;
24483;SDS011;12643;51.620;7.548;2023-01-28T05:47:47;9.18;;;8.25;;
24483;SDS011;12643;51.620;7.548;2023-01-28T05:50:17;10.07;;;7.60;;
24483;SDS011;12643;51.620;7.548;2023-01-28T05:52:45;9.65;;;7.95;;
24483;SDS011;12643;51.620;7.548;2023-01-28T05:55:13;9.90;;;8.05;;
24483;SDS011;12643;51.620;7.548;2023-01-28T05:57:41;8.05;;;7.00;;
24483;SDS011;12643;51.620;7.548;2023-01-28T06:00:10;9.13;;;7.38;;
24483;SDS011;12643;51.620;7.548;2023-01-28T06:02:40;9.07;;;7.60;;
24483;SDS011;12643;51.620;7.548;2023-01-28T06:05:08;8.50;;;7.25;;
24483;SDS011;12643;51.620;7.548;2023-01-28T06:07:43;8.55;;;7.65;;
24483;SDS011;12643;51.620;7.548;2023-01-28T06:10:12;8.80;;;7.07;;
24483;SDS011;12643;51.620;7.548;2023-01-28T06:12:42;8.98;;;6.90;;
24483;SDS011;12643;51.620;7.548;2023-01-28T06:15:10;10.05;;;7.57;;
24483;SDS011;12643;51.620;7.548;2023-01-28T06:17:39;7.78;;;7.07;;
24483;SDS011;12643;51.620;7.548;2023-01-28T06:20:07;7.80;;;7.00;;
24483;SDS011;12643;51.620;7.548;2023-01-28T06:22:35;9.57;;;7.82;;
24483;SDS011;12643;51.620;7.548;2023-01-28T06:25:06;9.52;;;7.38;;
24483;SDS011;12643;51.620;7.548;2023-01-28T06:27:34;9.45;;;7.68;;
24483;SDS011;12643;51.620;7.548;2023-01-28T06:30:02;8.25;;;7.05;;
24483;SDS011;12643;51.620;7.548;2023-01-28T06:32:31;7.93;;;7.07;;
24483;SDS011;12643;51.620;7.548;2023-01-28T06:35:00;9.68;;;7.28;;
24483;SDS011;12643;51.620;7.548;2023-01-28T06:37:28;7.22;;;6.53;;
24483;SDS011;12643;51.620;7.548;2023-01-28T06:39:58;10.00;;;7.10;;
24483;SDS011;12643;51.620;7.548;2023-01-28T06:42:28;7.53;;;6.68;;
24483;SDS011;12643;51.620;7.548;2023-01-28T06:44:56;10.27;;;6.35;;
24483;SDS011;12643;51.620;7.548;2023-01-28T06:47:23;8.90;;;6.28;;
24483;SDS011;12643;51.620;7.548;2023-01-28T06:49:51;9.18;;;7.22;;
24483;SDS011;12643;51.620;7.548;2023-01-28T06:52:19;9.90;;;7.07;;
24483;SDS011;12643;51.620;7.548;2023-01-28T06:54:47;10.05;;;6.57;;
24483;SDS011;12643;51.620;7.548;2023-01-28T06:57:15;9.85;;;6.35;;
24483;SDS011;12643;51.620;7.548;2023-01-28T06:59:44;11.38;;;7.63;;
24483;SDS011;12643;51.620;7.548;2023-01-28T07:02:12;11.40;;;7.82;;
24483;SDS011;12643;51.620;7.548;2023-01-28T07:04:40;10.40;;;7.90;;
24483;SDS011;12643;51.620;7.548;2023-01-28T07:07:08;8.25;;;6.60;;
24483;SDS011;12643;51.620;7.548;2023-01-28T07:09:36;12.20;;;6.85;;
24483;SDS011;12643;51.620;7.548;2023-01-28T07:12:04;6.95;;;6.10;;
24483;SDS011;12643;51.620;7.548;2023-01-28T07:14:32;8.85;;;6.72;;
24483;SDS011;12643;51.620;7.548;2023-01-28T07:17:03;8.20;;;6.68;;
24483;SDS011;12643;51.620;7.548;2023-01-28T07:19:31;7.30;;;6.55;;
24483;SDS011;12643;51.620;7.548;2023-01-28T07:21:59;8.48;;;6.55;;
24483;SDS011;12643;51.620;7.548;2023-01-28T07:24:27;7.15;;;6.43;;
24483;SDS011;12643;51.620;7.548;2023-01-28T07:26:55;6.93;;;5.90;;
24483;SDS011;12643;51.620;7.548;2023-01-28T07:29:23;11.57;;;7.10;;
24483;SDS011;12643;51.620;7.548;2023-01-28T07:31:51;9.23;;;7.25;;
24483;SDS011;12643;51.620;7.548;2023-01-28T07:34:20;9.05;;;6.95;;
24483;SDS011;12643;51.620;7.548;2023-01-28T07:36:49;8.82;;;6.97;;
24483;SDS011;12643;51.620;7.548;2023-01-28T07:39:17;8.95;;;6.60;;
24483;SDS011;12643;51.620;7.548;2023-01-28T07:41:45;8.88;;;7.10;;
24483;SDS011;12643;51.620;7.548;2023-01-28T07:44:13;9.82;;;7.30;;
24483;SDS011;12643;51.620;7.548;2023-01-28T07:46:41;9.60;;;7.75;;
24483;SDS011;12643;51.620;7.548;2023-01-28T07:49:09;10.32;;;6.85;;
24483;SDS011;12643;51.620;7.548;2023-01-28T07:51:39;7.40;;;6.65;;
24483;SDS011;12643;51.620;7.548;2023-01-28T07:54:07;8.15;;;6.85;;
24483;SDS011;12643;51.620;7.548;2023-01-28T07:56:35;12.43;;;7.57;;
24483;SDS011;12643;51.620;7.548;2023-01-28T07:59:03;8.77;;;6.82;;
24483;SDS011;12643;51.620;7.548;2023-01-28T08:01:31;10.05;;;7.50;;
24483;SDS011;12643;51.620;7.548;2023-01-28T08:03:59;8.02;;;7.13;;
24483;SDS011;12643;51.620;7.548;2023-01-28T08:06:27;10.27;;;7.28;;
24483;SDS011;12643;51.620;7.548;2023-01-28T08:09:04;11.15;;;6.65;;
24483;SDS011;12643;51.620;7.548;2023-01-28T08:11:32;10.43;;;7.00;;
24483;SDS011;12643;51.620;7.548;2023-01-28T08:14:03;7.47;;;6.63;;
24483;SDS011;12643;51.620;7.548;2023-01-28T08:16:32;7.20;;;6.45;;
24483;SDS011;12643;51.620;7.548;2023-01-28T08:18:59;10.75;;;6.82;;
24483;SDS011;12643;51.620;7.548;2023-01-28T08:21:27;8.55;;;6.43;;
24483;SDS011;12643;51.620;7.548;2023-01-28T08:23:55;9.07;;;7.10;;
24483;SDS011;12643;51.620;7.548;2023-01-28T08:26:25;10.65;;;6.93;;
24483;SDS011;12643;51.620;7.548;2023-01-28T08:28:53;11.27;;;7.13;;
24483;SDS011;12643;51.620;7.548;2023-01-28T08:31:21;7.68;;;6.50;;
24483;SDS011;12643;51.620;7.548;2023-01-28T08:33:48;7.38;;;6.15;;
24483;SDS011;12643;51.620;7.548;2023-01-28T08:36:16;7.47;;;6.78;;
24483;SDS011;12643;51.620;7.548;2023-01-28T08:38:45;11.18;;;7.85;;
24483;SDS011;12643;51.620;7.548;2023-01-28T08:41:19;7.93;;;6.60;;
24483;SDS011;12643;51.620;7.548;2023-01-28T08:43:49;6.68;;;5.80;;
24483;SDS011;12643;51.620;7.548;2023-01-28T08:46:17;7.18;;;6.25;;
24483;SDS011;12643;51.620;7.548;2023-01-28T08:48:48;6.75;;;6.10;;
24483;SDS011;12643;51.620;7.548;2023-01-28T08:51:16;8.88;;;6.80;;
24483;SDS011;12643;51.620;7.548;2023-01-28T08:53:44;8.98;;;6.78;;
24483;SDS011;12643;51.620;7.548;2023-01-28T08:56:12;7.00;;;6.30;;
24483;SDS011;12643;51.620;7.548;2023-01-28T08:58:41;8.25;;;6.60;;
24483;SDS011;12643;51.620;7.548;2023-01-28T09:01:11;9.00;;;6.82;;
24483;SDS011;12643;51.620;7.548;2023-01-28T09:03:39;9.65;;;7.20;;
24483;SDS011;12643;51.620;7.548;2023-01-28T09:06:06;8.40;;;6.65;;
24483;SDS011;12643;51.620;7.548;2023-01-28T09:08:34;7.47;;;6.78;;
24483;SDS011;12643;51.620;7.548;2023-01-28T09:11:02;8.45;;;6.65;;
24483;SDS011;12643;51.620;7.548;2023-01-28T09:13:30;8.65;;;6.93;;
24483;SDS011;12643;51.620;7.548;2023-01-28T09:16:03;10.00;;;7.13;;
24483;SDS011;12643;51.620;7.548;2023-01-28T09:18:32;9.57;;;6.35;;
24483;SDS011;12643;51.620;7.548;2023-01-28T09:21:03;7.40;;;6.65;;
24483;SDS011;12643;51.620;7.548;2023-01-28T09:23:33;8.32;;;6.47;;
24483;SDS011;12643;51.620;7.548;2023-01-28T09:26:02;7.97;;;6.60;;
24483;SDS011;12643;51.620;7.548;2023-01-28T09:28:31;7.20;;;6.40;;
24483;SDS011;12643;51.620;7.548;2023-01-28T09:31:00;7.43;;;6.43;;
24483;SDS011;12643;51.620;7.548;2023-01-28T09:33:28;7.80;;;6.68;;
24483;SDS011;12643;51.620;7.548;2023-01-28T09:36:00;7.50;;;6.38;;
24483;SDS011;12643;51.620;7.548;2023-01-28T09:38:31;10.00;;;7.07;;
24483;SDS011;12643;51.620;7.548;2023-01-28T09:41:02;8.55;;;6.45;;
24483;SDS011;12643;51.620;7.548;2023-01-28T09:43:53;8.55;;;7.00;;
24483;SDS011;12643;51.620;7.548;2023-01-28T09:46:42;6.40;;;5.72;;
24483;SDS011;12643;51.620;7.548;2023-01-28T09:49:14;9.43;;;6.60;;
24483;SDS011;12643;51.620;7.548;2023-01-28T09:51:48;9.35;;;6.95;;
24483;SDS011;12643;51.620;7.548;2023-01-28T09:54:22;8.27;;;7.45;;
24483;SDS011;12643;51.620;7.548;2023-01-28T09:56:56;9.57;;;7.47;;
24483;SDS011;12643;51.620;7.548;2023-01-28T09:59:31;7.75;;;6.95;;
24483;SDS011;12643;51.620;7.548;2023-01-28T10:02:02;9.48;;;8.15;;
24483;SDS011;12643;51.620;7.548;2023-01-28T10:04:44;15.38;;;9.02;;
24483;SDS011;12643;51.620;7.548;2023-01-28T10:07:25;10.00;;;8.73;;
24483;SDS011;12643;51.620;7.548;2023-01-28T10:10:01;9.75;;;7.72;;
24483;SDS011;12643;51.620;7.548;2023-01-28T10:12:43;11.57;;;7.82;;
24483;SDS011;12643;51.620;7.548;2023-01-28T10:18:16;9.55;;;8.10;;
24483;SDS011;12643;51.620;7.548;2023-01-28T10:20:53;9.43;;;7.97;;
24483;SDS011;12643;51.620;7.548;2023-01-28T10:23:30;9.85;;;8.75;;
24483;SDS011;12643;51.620;7.548;2023-01-28T10:26:10;9.75;;;8.75;;
24483;SDS011;12643;51.620;7.548;2023-01-28T10:28:54;10.65;;;8.68;;
24483;SDS011;12643;51.620;7.548;2023-01-28T10:31:28;9.88;;;8.90;;
24483;SDS011;12643;51.620;7.548;2023-01-28T10:33:59;10.15;;;9.10;;
24483;SDS011;12643;51.620;7.548;2023-01-28T10:36:29;10.85;;;9.30;;
24483;SDS011;12643;51.620;7.548;2023-01-28T10:39:01;10.13;;;9.18;;
24483;SDS011;12643;51.620;7.548;2023-01-28T10:43:58;9.85;;;8.82;;
24483;SDS011;12643;51.620;7.548;2023-01-28T10:46:28;10.95;;;9.52;;
24483;SDS011;12643;51.620;7.548;2023-01-28T10:49:01;12.32;;;8.98;;
24483;SDS011;12643;51.620;7.548;2023-01-28T10:51:34;14.65;;;9.25;;
24483;SDS011;12643;51.620;7.548;2023-01-28T10:54:16;11.98;;;9.55;;
24483;SDS011;12643;51.620;7.548;2023-01-28T10:56:46;10.63;;;9.50;;
24483;SDS011;12643;51.620;7.548;2023-01-28T10:59:18;12.68;;;9.30;;
24483;SDS011;12643;51.620;7.548;2023-01-28T11:01:49;10.60;;;9.50;;
24483;SDS011;12643;51.620;7.548;2023-01-28T11:04:22;10.15;;;9.15;;
24483;SDS011;12643;51.620;7.548;2023-01-28T11:06:52;10.32;;;9.35;;
24483;SDS011;12643;51.620;7.548;2023-01-28T11:09:26;11.03;;;9.37;;
24483;SDS011;12643;51.620;7.548;2023-01-28T11:12:08;10.95;;;9.80;;
24483;SDS011;12643;51.620;7.548;2023-01-28T11:14:42;12.55;;;10.00;;
24483;SDS011;12643;51.620;7.548;2023-01-28T11:17:15;10.63;;;8.93;;
24483;SDS011;12643;51.620;7.548;2023-01-28T11:19:44;11.00;;;9.77;;
24483;SDS011;12643;51.620;7.548;2023-01-28T11:22:18;14.15;;;9.63;;
24483;SDS011;12643;51.620;7.548;2023-01-28T11:24:52;11.77;;;9.40;;
24483;SDS011;12643;51.620;7.548;2023-01-28T11:27:21;11.27;;;9.48;;
24483;SDS011;12643;51.620;7.548;2023-01-28T11:29:55;12.43;;;9.25;;
24483;SDS011;12643;51.620;7.548;2023-01-28T11:32:28;12.15;;;9.30;;
24483;SDS011;12643;51.620;7.548;2023-01-28T11:34:57;9.68;;;8.60;;
24483;SDS011;12643;51.620;7.548;2023-01-28T11:37:26;10.52;;;8.75;;
24483;SDS011;12643;51.620;7.548;2023-01-28T11:40:02;9.70;;;8.73;;
24483;SDS011;12643;51.620;7.548;2023-01-28T11:42:41;10.70;;;9.15;;
24483;SDS011;12643;51.620;7.548;2023-01-28T11:45:09;14.90;;;9.43;;
24483;SDS011;12643;51.620;7.548;2023-01-28T11:50:42;12.68;;;9.43;;
24483;SDS011;12643;51.620;7.548;2023-01-28T11:53:18;12.70;;;9.93;;
24483;SDS011;12643;51.620;7.548;2023-01-28T11:56:15;13.52;;;10.50;;
24483;SDS011;12643;51.620;7.548;2023-01-28T11:58:55;17.60;;;11.13;;
24483;SDS011;12643;51.620;7.548;2023-01-28T12:01:36;14.77;;;10.37;;
24483;SDS011;12643;51.620;7.548;2023-01-28T12:04:20;16.48;;;12.00;;
24483;SDS011;12643;51.620;7.548;2023-01-28T12:07:09;17.95;;;12.15;;
24483;SDS011;12643;51.620;7.548;2023-01-28T12:09:50;14.48;;;11.80;;
24483;SDS011;12643;51.620;7.548;2023-01-28T12:18:48;16.35;;;10.70;;
24483;SDS011;12643;51.620;7.548;2023-01-28T12:21:33;14.70;;;10.93;;
24483;SDS011;12643;51.620;7.548;2023-01-28T12:24:19;15.40;;;11.20;;
24483;SDS011;12643;51.620;7.548;2023-01-28T12:27:00;24.08;;;16.42;;
24483;SDS011;12643;51.620;7.548;2023-01-28T12:29:40;19.15;;;11.05;;
24483;SDS011;12643;51.620;7.548;2023-01-28T12:32:18;14.30;;;11.45;;
24483;SDS011;12643;51.620;7.548;2023-01-28T12:35:13;15.50;;;11.98;;
24483;SDS011;12643;51.620;7.548;2023-01-28T12:37:57;21.92;;;13.77;;
24483;SDS011;12643;51.620;7.548;2023-01-28T12:43:44;17.55;;;11.63;;
24483;SDS011;12643;51.620;7.548;2023-01-28T12:46:24;13.55;;;10.40;;
24483;SDS011;12643;51.620;7.548;2023-01-28T12:49:05;17.70;;;12.02;;
24483;SDS011;12643;51.620;7.548;2023-01-28T12:51:41;19.23;;;11.35;;
24483;SDS011;12643;51.620;7.548;2023-01-28T12:54:21;18.55;;;11.80;;
24483;SDS011;12643;51.620;7.548;2023-01-28T12:56:53;17.65;;;13.68;;
24483;SDS011;12643;51.620;7.548;2023-01-28T12:59:24;16.60;;;12.90;;
24483;SDS011;12643;51.620;7.548;2023-01-28T13:01:59;14.85;;;11.73;;
24483;SDS011;12643;51.620;7.548;2023-01-28T13:04:39;13.95;;;11.93;;
24483;SDS011;12643;51.620;7.548;2023-01-28T13:07:12;15.68;;;11.82;;
24483;SDS011;12643;51.620;7.548;2023-01-28T13:09:52;16.33;;;12.57;;
24483;SDS011;12643;51.620;7.548;2023-01-28T13:12:27;14.07;;;11.93;;
24483;SDS011;12643;51.620;7.548;2023-01-28T13:14:56;16.83;;;12.25;;
24483;SDS011;12643;51.620;7.548;2023-01-28T13:17:27;14.48;;;11.98;;
24483;SDS011;12643;51.620;7.548;2023-01-28T13:22:28;15.73;;;11.98;;
24483;SDS011;12643;51.620;7.548;2023-01-28T13:25:11;20.98;;;15.60;;
24483;SDS011;12643;51.620;7.548;2023-01-28T13:27:56;19.92;;;13.98;;
24483;SDS011;12643;51.620;7.548;2023-01-28T13:30:29;18.55;;;12.68;;
24483;SDS011;12643;51.620;7.548;2023-01-28T13:33:00;17.63;;;13.13;;
24483;SDS011;12643;51.620;7.548;2023-01-28T13:35:31;16.50;;;13.43;;
24483;SDS011;12643;51.620;7.548;2023-01-28T13:38:12;19.85;;;14.43;;
24483;SDS011;12643;51.620;7.548;2023-01-28T13:41:01;16.52;;;13.27;;
24483;SDS011;12643;51.620;7.548;2023-01-28T13:43:34;18.30;;;14.55;;
24483;SDS011;12643;51.620;7.548;2023-01-28T13:46:04;19.52;;;14.02;;
24483;SDS011;12643;51.620;7.548;2023-01-28T13:48:38;19.92;;;14.13;;
24483;SDS011;12643;51.620;7.548;2023-01-28T13:51:10;18.92;;;14.32;;
24483;SDS011;12643;51.620;7.548;2023-01-28T13:53:44;17.35;;;14.93;;
24483;SDS011;12643;51.620;7.548;2023-01-28T13:56:18;19.60;;;13.25;;
24483;SDS011;12643;51.620;7.548;2023-01-28T14:01:40;20.70;;;14.70;;
24483;SDS011;12643;51.620;7.548;2023-01-28T14:10:45;17.15;;;14.50;;
24483;SDS011;12643;51.620;7.548;2023-01-28T14:16:28;21.08;;;15.15;;
24483;SDS011;12643;51.620;7.548;2023-01-28T14:19:01;21.33;;;15.75;;
24483;SDS011;12643;51.620;7.548;2023-01-28T14:21:31;24.25;;;16.10;;
24483;SDS011;12643;51.620;7.548;2023-01-28T14:24:01;23.98;;;16.00;;
24483;SDS011;12643;51.620;7.548;2023-01-28T14:29:27;25.50;;;16.85;;
24483;SDS011;12643;51.620;7.548;2023-01-28T14:32:03;26.05;;;16.52;;
24483;SDS011;12643;51.620;7.548;2023-01-28T14:34:34;31.17;;;18.08;;
24483;SDS011;12643;51.620;7.548;2023-01-28T14:37:05;24.67;;;15.90;;
24483;SDS011;12643;51.620;7.548;2023-01-28T14:39:38;23.20;;;16.25;;
24483;SDS011;12643;51.620;7.548;2023-01-28T14:42:13;22.35;;;16.30;;
24483;SDS011;12643;51.620;7.548;2023-01-28T14:44:47;24.75;;;15.23;;
24483;SDS011;12643;51.620;7.548;2023-01-28T14:47:25;24.02;;;17.25;;
24483;SDS011;12643;51.620;7.548;2023-01-28T14:53:23;27.45;;;17.75;;
24483;SDS011;12643;51.620;7.548;2023-01-28T14:56:09;25.42;;;17.55;;
24483;SDS011;12643;51.620;7.548;2023-01-28T14:58:49;26.10;;;18.80;;
24483;SDS011;12643;51.620;7.548;2023-01-28T15:01:20;27.45;;;18.92;;
24483;SDS011;12643;51.620;7.548;2023-01-28T15:03:49;28.13;;;18.73;;
24483;SDS011;12643;51.620;7.548;2023-01-28T15:06:18;33.80;;;20.30;;
24483;SDS011;12643;51.620;7.548;2023-01-28T15:08:48;32.33;;;19.60;;
24483;SDS011;12643;51.620;7.548;2023-01-28T15:11:20;24.85;;;17.60;;
24483;SDS011;12643;51.620;7.548;2023-01-28T15:13:52;26.35;;;18.45;;
24483;SDS011;12643;51.620;7.548;2023-01-28T15:16:24;28.40;;;18.77;;
24483;SDS011;12643;51.620;7.548;2023-01-28T15:18:55;30.70;;;20.48;;
24483;SDS011;12643;51.620;7.548;2023-01-28T15:21:27;38.80;;;21.02;;
24483;SDS011;12643;51.620;7.548;2023-01-28T15:23:56;31.63;;;21.92;;
24483;SDS011;12643;51.620;7.548;2023-01-28T15:26:26;37.78;;;23.25;;
24483;SDS011;12643;51.620;7.548;2023-01-28T15:28:57;42.80;;;23.63;;
24483;SDS011;12643;51.620;7.548;2023-01-28T15:31:28;38.60;;;23.92;;
24483;SDS011;12643;51.620;7.548;2023-01-28T15:33:58;38.95;;;24.00;;
24483;SDS011;12643;51.620;7.548;2023-01-28T15:36:27;42.13;;;22.85;;
24483;SDS011;12643;51.620;7.548;2023-01-28T15:38:56;39.58;;;22.67;;
24483;SDS011;12643;51.620;7.548;2023-01-28T15:41:26;40.40;;;22.02;;
24483;SDS011;12643;51.620;7.548;2023-01-28T15:43:59;42.53;;;22.48;;
24483;SDS011;12643;51.620;7.548;2023-01-28T15:46:28;40.10;;;24.40;;
24483;SDS011;12643;51.620;7.548;2023-01-28T15:48:56;40.03;;;22.83;;
24483;SDS011;12643;51.620;7.548;2023-01-28T15:51:26;37.40;;;22.27;;
24483;SDS011;12643;51.620;7.548;2023-01-28T15:53:57;40.85;;;23.63;;
24483;SDS011;12643;51.620;7.548;2023-01-28T15:56:28;36.70;;;22.45;;
24483;SDS011;12643;51.620;7.548;2023-01-28T15:59:08;42.72;;;24.40;;
24483;SDS011;12643;51.620;7.548;2023-01-28T16:01:47;38.58;;;23.85;;
24483;SDS011;12643;51.620;7.548;2023-01-28T16:04:21;39.25;;;23.45;;